sensor_id;sensor_type;location;lat;lon;timestamp;pressure;altitude;pressure_sealevel;temperature;humidity
22743;BME280;11538;48.884;8.696;2023-01-25T00:02:29;100424.72;;;2.52;100.00
22743;BME280;11538;48.884;8.696;2023-01-25T00:04:56;100418.13;;;2.48;100.00
22743;BME280;11538;48.884;8.696;2023-01-25T00:07:23;100410.31;;;2.53;100.00
22743;BME280;11538;48.884;8.696;2023-01-25T00:09:49;100411.94;;;2.54;100.00
22743;BME280;11538;48.884;8.696;2023-01-25T00:12:16;100408.25;;;2.55;100.00
22743;BME280;11538;48.884;8.696;2023-01-25T00:14:44;100406.59;;;2.54;100.00
22743;BME280;11538;48.884;8.696;2023-01-25T00:17:11;100406.59;;;2.54;100.00
22743;BME280;11538;48.884;8.696;2023-01-25T00:19:37;100404.53;;;2.56;100.00
22743;BME280;11538;48.884;8.696;2023-01-25T00:22:04;100408.63;;;2.59;100.00
22743;BME280;11538;48.884;8.696;2023-01-25T00:24:31;100402.25;;;2.60;100.00
22743;BME280;11538;48.884;8.696;2023-01-25T00:26:58;100400.81;;;2.57;100.00
22743;BME280;11538;48.884;8.696;2023-01-25T00:29:25;100403.91;;;2.54;100.00
22743;BME280;11538;48.884;8.696;2023-01-25T00:41:07;100393.19;;;2.61;100.00
22743;BME280;11538;48.884;8.696;2023-01-25T00:43:34;100389.06;;;2.58;100.00
22743;BME280;11538;48.884;8.696;2023-01-25T00:46:01;100376.28;;;2.60;100.00
22743;BME280;11538;48.884;8.696;2023-01-25T00:48:28;100383.50;;;2.60;100.00
22743;BME280;11538;48.884;8.696;2023-01-25T00:51:00;100380.00;;;2.59;100.00
22743;BME280;11538;48.884;8.696;2023-01-25T00:57:18;100380.59;;;2.55;100.00
22743;BME280;11538;48.884;8.696;2023-01-25T00:59:45;100378.16;;;2.53;100.00
22743;BME280;11538;48.884;8.696;2023-01-25T01:02:13;100377.94;;;2.55;100.00
22743;BME280;11538;48.884;8.696;2023-01-25T01:04:39;100373.41;;;2.55;100.00
22743;BME280;11538;48.884;8.696;2023-01-25T01:07:25;100373.00;;;2.52;100.00
22743;BME280;11538;48.884;8.696;2023-01-25T01:16:20;100384.94;;;2.56;100.00
22743;BME280;11538;48.884;8.696;2023-01-25T01:18:47;100381.44;;;2.55;100.00
22743;BME280;11538;48.884;8.696;2023-01-25T01:21:14;100378.97;;;2.54;100.00
22743;BME280;11538;48.884;8.696;2023-01-25T01:23:41;100375.66;;;2.52;100.00
22743;BME280;11538;48.884;8.696;2023-01-25T01:26:11;100377.72;;;2.49;100.00
22743;BME280;11538;48.884;8.696;2023-01-25T01:28:38;100369.69;;;2.49;100.00
22743;BME280;11538;48.884;8.696;2023-01-25T01:31:17;100367.63;;;2.52;100.00
22743;BME280;11538;48.884;8.696;2023-01-25T01:33:53;100366.19;;;2.56;100.00
22743;BME280;11538;48.884;8.696;2023-01-25T01:36:25;100363.50;;;2.56;100.00
22743;BME280;11538;48.884;8.696;2023-01-25T01:38:52;100360.22;;;2.54;100.00
22743;BME280;11538;48.884;8.696;2023-01-25T01:41:20;100369.50;;;2.51;100.00
22743;BME280;11538;48.884;8.696;2023-01-25T01:43:47;100370.53;;;2.50;100.00
22743;BME280;11538;48.884;8.696;2023-01-25T01:46:27;100371.13;;;2.45;100.00
22743;BME280;11538;48.884;8.696;2023-01-25T01:49:05;100374.25;;;2.49;100.00
22743;BME280;11538;48.884;8.696;2023-01-25T01:51:46;100373.59;;;2.54;100.00
22743;BME280;11538;48.884;8.696;2023-01-25T01:54:19;100372.78;;;2.53;100.00
22743;BME280;11538;48.884;8.696;2023-01-25T01:59:14;100376.09;;;2.48;100.00
22743;BME280;11538;48.884;8.696;2023-01-25T02:01:42;100378.16;;;2.46;100.00
22743;BME280;11538;48.884;8.696;2023-01-25T02:04:11;100364.75;;;2.46;100.00
22743;BME280;11538;48.884;8.696;2023-01-25T02:06:44;100376.31;;;2.47;100.00
22743;BME280;11538;48.884;8.696;2023-01-25T02:09:15;100369.69;;;2.49;100.00
22743;BME280;11538;48.884;8.696;2023-01-25T02:11:45;100372.59;;;2.48;100.00
22743;BME280;11538;48.884;8.696;2023-01-25T02:14:14;100369.50;;;2.51;100.00
22743;BME280;11538;48.884;8.696;2023-01-25T02:16:43;100367.84;;;2.57;100.00
22743;BME280;11538;48.884;8.696;2023-01-25T02:19:16;100363.91;;;2.53;100.00
22743;BME280;11538;48.884;8.696;2023-01-25T02:21:48;100359.41;;;2.53;100.00
22743;BME280;11538;48.884;8.696;2023-01-25T02:24:29;100356.91;;;2.52;100.00
22743;BME280;11538;48.884;8.696;2023-01-25T02:26:58;100356.50;;;2.55;100.00
22743;BME280;11538;48.884;8.696;2023-01-25T02:29:26;100362.09;;;2.53;100.00
22743;BME280;11538;48.884;8.696;2023-01-25T02:32:02;100358.56;;;2.53;100.00
22743;BME280;11538;48.884;8.696;2023-01-25T02:34:30;100359.19;;;2.55;100.00
22743;BME280;11538;48.884;8.696;2023-01-25T02:36:58;100358.16;;;2.56;100.00
22743;BME280;11538;48.884;8.696;2023-01-25T02:39:26;100346.19;;;2.52;100.00
22743;BME280;11538;48.884;8.696;2023-01-25T02:41:53;100349.91;;;2.51;100.00
22743;BME280;11538;48.884;8.696;2023-01-25T02:44:24;100345.38;;;2.51;100.00
22743;BME280;11538;48.884;8.696;2023-01-25T02:46:52;100349.28;;;2.48;100.00
22743;BME280;11538;48.884;8.696;2023-01-25T02:49:19;100344.97;;;2.47;100.00
22743;BME280;11538;48.884;8.696;2023-01-25T02:51:48;100339.81;;;2.53;100.00
22743;BME280;11538;48.884;8.696;2023-01-25T02:54:41;100339.41;;;2.56;100.00
22743;BME280;11538;48.884;8.696;2023-01-25T02:57:08;100338.16;;;2.58;100.00
22743;BME280;11538;48.884;8.696;2023-01-25T02:59:35;100327.88;;;2.55;100.00
22743;BME280;11538;48.884;8.696;2023-01-25T03:02:02;100330.31;;;2.57;100.00
22743;BME280;11538;48.884;8.696;2023-01-25T03:04:29;100326.41;;;2.53;100.00
22743;BME280;11538;48.884;8.696;2023-01-25T03:06:56;100322.09;;;2.52;100.00
22743;BME280;11538;48.884;8.696;2023-01-25T03:09:23;100319.41;;;2.52;100.00
22743;BME280;11538;48.884;8.696;2023-01-25T03:11:50;100319.84;;;2.48;100.00
22743;BME280;11538;48.884;8.696;2023-01-25T03:14:16;100321.91;;;2.46;100.00
22743;BME280;11538;48.884;8.696;2023-01-25T03:16:43;100323.97;;;2.51;100.00
22743;BME280;11538;48.884;8.696;2023-01-25T03:19:10;100318.38;;;2.53;100.00
22743;BME280;11538;48.884;8.696;2023-01-25T03:21:39;100318.41;;;2.46;100.00
22743;BME280;11538;48.884;8.696;2023-01-25T03:24:07;100323.53;;;2.47;100.00
22743;BME280;11538;48.884;8.696;2023-01-25T03:26:34;100315.72;;;2.46;100.00
22743;BME280;11538;48.884;8.696;2023-01-25T03:29:24;100314.88;;;2.45;100.00
22743;BME280;11538;48.884;8.696;2023-01-25T03:31:51;100312.81;;;2.47;100.00
22743;BME280;11538;48.884;8.696;2023-01-25T03:34:18;100314.91;;;2.52;100.00
22743;BME280;11538;48.884;8.696;2023-01-25T03:36:44;100312.41;;;2.51;100.00
22743;BME280;11538;48.884;8.696;2023-01-25T03:39:11;100312.81;;;2.47;100.00
22743;BME280;11538;48.884;8.696;2023-01-25T03:41:38;100312.63;;;2.42;100.00
22743;BME280;11538;48.884;8.696;2023-01-25T03:44:05;100316.75;;;2.45;100.00
22743;BME280;11538;48.884;8.696;2023-01-25T03:46:32;100315.91;;;2.44;100.00
22743;BME280;11538;48.884;8.696;2023-01-25T03:48:59;100312.25;;;2.39;100.00
22743;BME280;11538;48.884;8.696;2023-01-25T03:51:25;100308.53;;;2.33;100.00
22743;BME280;11538;48.884;8.696;2023-01-25T03:53:52;100310.78;;;2.36;100.00
22743;BME280;11538;48.884;8.696;2023-01-25T03:56:19;100311.81;;;2.35;100.00
22743;BME280;11538;48.884;8.696;2023-01-25T03:58:46;100315.09;;;2.37;100.00
22743;BME280;11538;48.884;8.696;2023-01-25T04:01:13;100312.63;;;2.42;100.00
22743;BME280;11538;48.884;8.696;2023-01-25T04:03:40;100316.34;;;2.41;100.00
22743;BME280;11538;48.884;8.696;2023-01-25T04:06:07;100307.28;;;2.42;100.00
22743;BME280;11538;48.884;8.696;2023-01-25T04:08:34;100309.75;;;2.37;100.00
22743;BME280;11538;48.884;8.696;2023-01-25T04:11:07;100312.66;;;2.36;100.00
22743;BME280;11538;48.884;8.696;2023-01-25T04:13:34;100308.53;;;2.33;100.00
22743;BME280;11538;48.884;8.696;2023-01-25T04:16:06;100305.66;;;2.34;100.00
22743;BME280;11538;48.884;8.696;2023-01-25T04:18:33;100303.78;;;2.35;100.00
22743;BME280;11538;48.884;8.696;2023-01-25T04:21:00;100302.75;;;2.36;100.00
22743;BME280;11538;48.884;8.696;2023-01-25T04:23:27;100302.75;;;2.36;100.00
22743;BME280;11538;48.884;8.696;2023-01-25T04:26:04;100297.38;;;2.36;100.00
22743;BME280;11538;48.884;8.696;2023-01-25T04:28:32;100294.09;;;2.34;100.00
22743;BME280;11538;48.884;8.696;2023-01-25T04:31:00;100300.72;;;2.31;100.00
22743;BME280;11538;48.884;8.696;2023-01-25T04:33:29;100294.50;;;2.31;100.00
22743;BME280;11538;48.884;8.696;2023-01-25T04:35:55;100285.44;;;2.32;100.00
22743;BME280;11538;48.884;8.696;2023-01-25T04:38:22;100287.50;;;2.30;100.00
22743;BME280;11538;48.884;8.696;2023-01-25T04:40:51;100293.91;;;2.29;100.00
22743;BME280;11538;48.884;8.696;2023-01-25T04:43:21;100280.50;;;2.29;100.00
22743;BME280;11538;48.884;8.696;2023-01-25T04:45:48;100280.50;;;2.29;100.00
22743;BME280;11538;48.884;8.696;2023-01-25T04:48:14;100281.13;;;2.31;100.00
22743;BME280;11538;48.884;8.696;2023-01-25T04:50:42;100284.63;;;2.31;100.00
22743;BME280;11538;48.884;8.696;2023-01-25T04:53:10;100276.19;;;2.34;100.00
22743;BME280;11538;48.884;8.696;2023-01-25T04:55:37;100283.59;;;2.32;100.00
22743;BME280;11538;48.884;8.696;2023-01-25T04:58:04;100284.41;;;2.33;100.00
22743;BME280;11538;48.884;8.696;2023-01-25T05:00:31;100282.34;;;2.35;100.00
22743;BME280;11538;48.884;8.696;2023-01-25T05:02:58;100281.31;;;2.36;100.00
22743;BME280;11538;48.884;8.696;2023-01-25T05:05:25;100276.38;;;2.33;100.00
22743;BME280;11538;48.884;8.696;2023-01-25T05:07:52;100268.78;;;2.37;100.00
22743;BME280;11538;48.884;8.696;2023-01-25T05:10:19;100271.44;;;2.37;100.00
22743;BME280;11538;48.884;8.696;2023-01-25T05:12:45;100268.78;;;2.37;100.00
22743;BME280;11538;48.884;8.696;2023-01-25T05:15:12;100266.50;;;2.33;100.00
22743;BME280;11538;48.884;8.696;2023-01-25T05:17:39;100276.59;;;2.38;100.00
22743;BME280;11538;48.884;8.696;2023-01-25T05:20:06;100273.50;;;2.41;100.00
22743;BME280;11538;48.884;8.696;2023-01-25T05:22:33;100271.44;;;2.37;100.00
22743;BME280;11538;48.884;8.696;2023-01-25T05:25:01;100272.66;;;2.34;100.00
22743;BME280;11538;48.884;8.696;2023-01-25T05:27:29;100281.75;;;2.33;100.00
22743;BME280;11538;48.884;8.696;2023-01-25T05:29:56;100271.63;;;2.35;100.00
22743;BME280;11538;48.884;8.696;2023-01-25T05:32:23;100269.38;;;2.32;100.00
22743;BME280;11538;48.884;8.696;2023-01-25T05:34:50;100270.00;;;2.34;100.00
22743;BME280;11538;48.884;8.696;2023-01-25T05:37:19;100268.53;;;2.38;100.00
22743;BME280;11538;48.884;8.696;2023-01-25T05:39:46;100265.88;;;2.38;100.00
22743;BME280;11538;48.884;8.696;2023-01-25T05:42:17;100273.28;;;2.36;100.00
22743;BME280;11538;48.884;8.696;2023-01-25T05:44:44;100277.00;;;2.35;100.00
22743;BME280;11538;48.884;8.696;2023-01-25T05:47:15;100292.44;;;2.33;100.00
22743;BME280;11538;48.884;8.696;2023-01-25T05:49:42;100285.25;;;2.33;100.00
22743;BME280;11538;48.884;8.696;2023-01-25T05:52:14;100284.00;;;2.36;100.00
22743;BME280;11538;48.884;8.696;2023-01-25T05:54:42;100286.88;;;2.41;100.00
22743;BME280;11538;48.884;8.696;2023-01-25T05:57:09;100281.31;;;2.43;100.00
22743;BME280;11538;48.884;8.696;2023-01-25T05:59:35;100271.41;;;2.43;100.00
22743;BME280;11538;48.884;8.696;2023-01-25T06:02:02;100269.78;;;2.42;100.00
22743;BME280;11538;48.884;8.696;2023-01-25T06:04:29;100264.63;;;2.41;100.00
22743;BME280;11538;48.884;8.696;2023-01-25T06:06:56;100266.91;;;2.37;100.00
22743;BME280;11538;48.884;8.696;2023-01-25T06:09:22;100265.66;;;2.33;100.00
22743;BME280;11538;48.884;8.696;2023-01-25T06:11:49;100264.03;;;2.32;100.00
22743;BME280;11538;48.884;8.696;2023-01-25T06:14:16;100254.56;;;2.29;100.00
22743;BME280;11538;48.884;8.696;2023-01-25T06:16:43;100250.63;;;2.32;100.00
22743;BME280;11538;48.884;8.696;2023-01-25T06:19:11;100249.19;;;2.36;100.00
22743;BME280;11538;48.884;8.696;2023-01-25T06:21:38;100245.09;;;2.33;100.00
22743;BME280;11538;48.884;8.696;2023-01-25T06:24:05;100247.53;;;2.35;100.00
22743;BME280;11538;48.884;8.696;2023-01-25T06:26:32;100245.88;;;2.47;100.00
22743;BME280;11538;48.884;8.696;2023-01-25T06:28:59;100234.25;;;2.74;100.00
22743;BME280;11538;48.884;8.696;2023-01-25T06:31:26;100233.47;;;2.60;100.00
22743;BME280;11538;48.884;8.696;2023-01-25T06:33:53;100239.09;;;2.45;100.00
22743;BME280;11538;48.884;8.696;2023-01-25T06:36:21;100233.13;;;2.36;100.00
22743;BME280;11538;48.884;8.696;2023-01-25T06:38:49;100236.22;;;2.33;100.00
22743;BME280;11538;48.884;8.696;2023-01-25T06:41:17;100225.94;;;2.30;100.00
22743;BME280;11538;48.884;8.696;2023-01-25T06:43:44;100235.00;;;2.29;100.00
22743;BME280;11538;48.884;8.696;2023-01-25T06:46:11;100228.81;;;2.28;100.00
22743;BME280;11538;48.884;8.696;2023-01-25T06:48:38;100226.97;;;2.29;100.00
22743;BME280;11538;48.884;8.696;2023-01-25T06:51:07;100223.66;;;2.27;100.00
22743;BME280;11538;48.884;8.696;2023-01-25T06:53:36;100230.06;;;2.26;100.00
22743;BME280;11538;48.884;8.696;2023-01-25T06:56:07;100231.88;;;2.32;100.00
22743;BME280;11538;48.884;8.696;2023-01-25T06:58:38;100228.19;;;2.33;100.00
22743;BME280;11538;48.884;8.696;2023-01-25T07:01:15;100230.66;;;2.34;100.00
22743;BME280;11538;48.884;8.696;2023-01-25T07:03:42;100228.41;;;2.31;100.00
22743;BME280;11538;48.884;8.696;2023-01-25T07:06:10;100225.13;;;2.29;100.00
22743;BME280;11538;48.884;8.696;2023-01-25T07:08:37;100224.09;;;2.30;100.00
22743;BME280;11538;48.884;8.696;2023-01-25T07:11:06;100228.41;;;2.31;100.00
22743;BME280;11538;48.884;8.696;2023-01-25T07:13:35;100229.03;;;2.33;100.00
22743;BME280;11538;48.884;8.696;2023-01-25T07:16:06;100225.13;;;2.29;100.00
22743;BME280;11538;48.884;8.696;2023-01-25T07:18:34;100226.34;;;2.27;100.00
22743;BME280;11538;48.884;8.696;2023-01-25T07:21:11;100230.88;;;2.26;100.00
22743;BME280;11538;48.884;8.696;2023-01-25T07:23:38;100230.66;;;2.28;100.00
22743;BME280;11538;48.884;8.696;2023-01-25T07:26:16;100226.75;;;2.30;100.00
22743;BME280;11538;48.884;8.696;2023-01-25T07:28:44;100232.31;;;2.29;100.00
22743;BME280;11538;48.884;8.696;2023-01-25T07:31:12;100228.22;;;2.26;100.00
22743;BME280;11538;48.884;8.696;2023-01-25T07:33:39;100220.38;;;2.25;100.00
22743;BME280;11538;48.884;8.696;2023-01-25T07:36:08;100211.94;;;2.21;100.00
22743;BME280;11538;48.884;8.696;2023-01-25T07:38:35;100220.38;;;2.25;100.00
22743;BME280;11538;48.884;8.696;2023-01-25T07:41:03;100220.78;;;2.28;100.00
22743;BME280;11538;48.884;8.696;2023-01-25T07:43:29;100218.91;;;2.29;100.00
22743;BME280;11538;48.884;8.696;2023-01-25T07:46:00;100215.63;;;2.33;100.00
22743;BME280;11538;48.884;8.696;2023-01-25T07:48:28;100216.25;;;2.36;100.00
22743;BME280;11538;48.884;8.696;2023-01-25T07:51:03;100216.84;;;2.38;100.00
22743;BME280;11538;48.884;8.696;2023-01-25T07:53:53;100227.16;;;2.41;100.00
22743;BME280;11538;48.884;8.696;2023-01-25T07:56:22;100214.75;;;2.46;100.00
22743;BME280;11538;48.884;8.696;2023-01-25T07:58:54;100216.97;;;2.63;100.00
22743;BME280;11538;48.884;8.696;2023-01-25T08:01:23;100220.50;;;2.57;100.00
22743;BME280;11538;48.884;8.696;2023-01-25T08:03:51;100213.28;;;2.51;100.00
22743;BME280;11538;48.884;8.696;2023-01-25T08:06:27;100219.47;;;2.58;100.00
22743;BME280;11538;48.884;8.696;2023-01-25T08:08:58;100218.41;;;2.59;100.00
22743;BME280;11538;48.884;8.696;2023-01-25T08:11:26;100216.78;;;2.58;100.00
22743;BME280;11538;48.884;8.696;2023-01-25T08:13:53;100219.28;;;2.53;100.00
22743;BME280;11538;48.884;8.696;2023-01-25T08:16:24;100221.75;;;2.47;100.00
22743;BME280;11538;48.884;8.696;2023-01-25T08:18:54;100226.50;;;2.45;100.00
22743;BME280;11538;48.884;8.696;2023-01-25T08:21:22;100230.81;;;2.46;100.00
22743;BME280;11538;48.884;8.696;2023-01-25T08:24:00;100225.47;;;2.53;100.00
22743;BME280;11538;48.884;8.696;2023-01-25T08:26:27;100228.53;;;2.57;100.00
22743;BME280;11538;48.884;8.696;2023-01-25T08:28:55;100219.69;;;2.49;100.00
22743;BME280;11538;48.884;8.696;2023-01-25T08:31:26;100230.81;;;2.46;100.00
22743;BME280;11538;48.884;8.696;2023-01-25T08:33:54;100220.72;;;2.48;100.00
22743;BME280;11538;48.884;8.696;2023-01-25T08:36:21;100224.00;;;2.51;100.00
22743;BME280;11538;48.884;8.696;2023-01-25T08:38:59;100211.66;;;2.49;100.00
22743;BME280;11538;48.884;8.696;2023-01-25T08:41:27;100207.56;;;2.47;100.00
22743;BME280;11538;48.884;8.696;2023-01-25T08:43:55;100215.78;;;2.45;100.00
22743;BME280;11538;48.884;8.696;2023-01-25T08:46:25;100213.09;;;2.45;100.00
22743;BME280;11538;48.884;8.696;2023-01-25T08:48:56;100203.00;;;2.47;100.00
22743;BME280;11538;48.884;8.696;2023-01-25T08:51:24;100200.53;;;2.53;100.00
22743;BME280;11538;48.884;8.696;2023-01-25T08:53:51;100202.34;;;2.59;100.00
22743;BME280;11538;48.884;8.696;2023-01-25T08:56:18;100200.09;;;2.56;100.00
22743;BME280;11538;48.884;8.696;2023-01-25T08:58:47;100198.88;;;2.58;100.00
22743;BME280;11538;48.884;8.696;2023-01-25T09:01:16;100196.00;;;2.53;100.00
22743;BME280;11538;48.884;8.696;2023-01-25T09:03:46;100190.22;;;2.49;100.00
22743;BME280;11538;48.884;8.696;2023-01-25T09:06:14;100191.25;;;2.55;100.00
22743;BME280;11538;48.884;8.696;2023-01-25T09:08:41;100191.44;;;2.60;100.00
22743;BME280;11538;48.884;8.696;2023-01-25T09:11:14;100194.72;;;2.62;100.00
22743;BME280;11538;48.884;8.696;2023-01-25T09:13:41;100193.88;;;2.62;100.00
22743;BME280;11538;48.884;8.696;2023-01-25T09:16:14;100196.38;;;2.63;100.00
22743;BME280;11538;48.884;8.696;2023-01-25T09:18:43;100190.81;;;2.65;100.00
22743;BME280;11538;48.884;8.696;2023-01-25T09:21:13;100186.47;;;2.64;100.00
22743;BME280;11538;48.884;8.696;2023-01-25T09:23:41;100184.41;;;2.66;100.00
22743;BME280;11538;48.884;8.696;2023-01-25T09:26:30;100183.38;;;2.67;100.00
22743;BME280;11538;48.884;8.696;2023-01-25T09:28:58;100181.50;;;2.68;100.00
22743;BME280;11538;48.884;8.696;2023-01-25T09:31:25;100181.94;;;2.71;100.00
22743;BME280;11538;48.884;8.696;2023-01-25T09:33:55;100177.59;;;2.70;100.00
22743;BME280;11538;48.884;8.696;2023-01-25T09:36:23;100187.91;;;2.67;100.00
22743;BME280;11538;48.884;8.696;2023-01-25T09:38:50;100173.28;;;2.69;100.00
22743;BME280;11538;48.884;8.696;2023-01-25T09:44:37;100177.72;;;2.82;100.00
22743;BME280;11538;48.884;8.696;2023-01-25T09:50:18;100188.28;;;2.77;100.00
22743;BME280;11538;48.884;8.696;2023-01-25T09:55:38;100181.88;;;2.78;100.00
22743;BME280;11538;48.884;8.696;2023-01-25T09:58:12;100176.09;;;2.81;100.00
22743;BME280;11538;48.884;8.696;2023-01-25T10:00:49;100182.72;;;2.78;100.00
22743;BME280;11538;48.884;8.696;2023-01-25T10:04:00;100169.13;;;2.73;100.00
22743;BME280;11538;48.884;8.696;2023-01-25T10:06:38;100188.50;;;2.69;100.00
22743;BME280;11538;48.884;8.696;2023-01-25T10:11:46;100177.78;;;2.75;100.00
22743;BME280;11538;48.884;8.696;2023-01-25T10:14:15;100174.50;;;2.73;100.00
22743;BME280;11538;48.884;8.696;2023-01-25T10:16:50;100171.22;;;2.71;100.00
22743;BME280;11538;48.884;8.696;2023-01-25T10:22:14;100178.84;;;2.68;100.00
22743;BME280;11538;48.884;8.696;2023-01-25T10:24:54;100158.66;;;2.65;100.00
22743;BME280;11538;48.884;8.696;2023-01-25T10:27:42;100158.66;;;2.65;100.00
22743;BME280;11538;48.884;8.696;2023-01-25T10:30:25;100159.44;;;2.72;100.00
22743;BME280;11538;48.884;8.696;2023-01-25T10:33:10;100152.66;;;2.70;100.00
22743;BME280;11538;48.884;8.696;2023-01-25T10:35:43;100148.56;;;2.67;100.00
22743;BME280;11538;48.884;8.696;2023-01-25T10:38:19;100149.59;;;2.66;100.00
22743;BME280;11538;48.884;8.696;2023-01-25T10:40:53;100149.16;;;2.69;100.00
22743;BME280;11538;48.884;8.696;2023-01-25T10:43:22;100149.16;;;2.69;100.00
22743;BME280;11538;48.884;8.696;2023-01-25T10:45:50;100143.41;;;2.66;100.00
22743;BME280;11538;48.884;8.696;2023-01-25T10:48:23;100147.09;;;2.65;100.00
22743;BME280;11538;48.884;8.696;2023-01-25T10:50:55;100140.28;;;2.69;100.00
22743;BME280;11538;48.884;8.696;2023-01-25T10:53:32;100147.88;;;2.78;100.00
22743;BME280;11538;48.884;8.696;2023-01-25T10:58:47;100138.53;;;2.88;100.00
22743;BME280;11538;48.884;8.696;2023-01-25T11:03:51;100128.47;;;2.83;100.00
22743;BME280;11538;48.884;8.696;2023-01-25T11:06:36;100124.78;;;2.77;100.00
22743;BME280;11538;48.884;8.696;2023-01-25T11:09:30;100119.88;;;2.74;100.00
22743;BME280;11538;48.884;8.696;2023-01-25T11:11:59;100123.78;;;2.72;100.00
22743;BME280;11538;48.884;8.696;2023-01-25T11:14:28;100117.00;;;2.69;100.00
22743;BME280;11538;48.884;8.696;2023-01-25T11:16:57;100121.34;;;2.70;100.00
22743;BME280;11538;48.884;8.696;2023-01-25T11:19:26;100118.47;;;2.65;100.00
22743;BME280;11538;48.884;8.696;2023-01-25T11:21:55;100113.31;;;2.63;100.00
22743;BME280;11538;48.884;8.696;2023-01-25T11:24:28;100107.75;;;2.65;100.00
22743;BME280;11538;48.884;8.696;2023-01-25T11:29:39;100098.25;;;2.69;100.00
22743;BME280;11538;48.884;8.696;2023-01-25T11:32:18;100091.03;;;2.70;100.00
22743;BME280;11538;48.884;8.696;2023-01-25T11:34:49;100082.56;;;2.73;100.00
22743;BME280;11538;48.884;8.696;2023-01-25T11:37:44;100076.56;;;2.77;100.00
22743;BME280;11538;48.884;8.696;2023-01-25T11:40:26;100074.91;;;2.76;100.00
22743;BME280;11538;48.884;8.696;2023-01-25T11:43:02;100072.66;;;2.73;100.00
22743;BME280;11538;48.884;8.696;2023-01-25T11:45:53;100068.97;;;2.68;100.00
22743;BME280;11538;48.884;8.696;2023-01-25T11:56:59;100047.53;;;2.68;100.00
22743;BME280;11538;48.884;8.696;2023-01-25T12:08:23;100033.94;;;2.69;100.00
22743;BME280;11538;48.884;8.696;2023-01-25T12:11:21;100022.22;;;2.63;100.00
22743;BME280;11538;48.884;8.696;2023-01-25T12:14:21;100016.44;;;2.67;100.00
22743;BME280;11538;48.884;8.696;2023-01-25T12:17:18;100014.97;;;2.71;100.00
22743;BME280;11538;48.884;8.696;2023-01-25T12:20:19;100002.59;;;2.70;100.00
22743;BME280;11538;48.884;8.696;2023-01-25T12:28:40;99984.00;;;2.75;100.00
22743;BME280;11538;48.884;8.696;2023-01-25T12:31:15;99981.00;;;2.65;100.00
22743;BME280;11538;48.884;8.696;2023-01-25T12:33:50;99981.59;;;2.67;100.00
22743;BME280;11538;48.884;8.696;2023-01-25T12:36:30;99973.75;;;2.72;100.00
22743;BME280;11538;48.884;8.696;2023-01-25T12:39:04;99964.31;;;2.62;100.00
22743;BME280;11538;48.884;8.696;2023-01-25T12:41:37;99963.72;;;2.60;100.00
22743;BME280;11538;48.884;8.696;2023-01-25T12:44:13;99957.34;;;2.61;100.00
22743;BME280;11538;48.884;8.696;2023-01-25T12:46:56;99957.97;;;2.57;100.00
22743;BME280;11538;48.884;8.696;2023-01-25T12:49:40;99951.13;;;2.61;100.00
22743;BME280;11538;48.884;8.696;2023-01-25T12:52:29;99945.41;;;2.57;100.00
22743;BME280;11538;48.884;8.696;2023-01-25T12:55:02;99946.81;;;2.60;100.00
22743;BME280;11538;48.884;8.696;2023-01-25T12:57:43;99938.63;;;2.55;100.00
22743;BME280;11538;48.884;8.696;2023-01-25T13:00:33;99933.69;;;2.52;100.00
22743;BME280;11538;48.884;8.696;2023-01-25T13:03:27;99942.78;;;2.51;100.00
22743;BME280;11538;48.884;8.696;2023-01-25T13:06:06;99935.13;;;2.54;100.00
22743;BME280;11538;48.884;8.696;2023-01-25T13:11:47;99926.25;;;2.54;100.00
22743;BME280;11538;48.884;8.696;2023-01-25T13:16:50;99917.03;;;2.49;100.00
22743;BME280;11538;48.884;8.696;2023-01-25T13:22:03;99900.78;;;2.44;100.00
22743;BME280;11538;48.884;8.696;2023-01-25T13:24:31;99909.44;;;2.46;100.00
22743;BME280;11538;48.884;8.696;2023-01-25T13:27:03;99902.00;;;2.48;100.00
22743;BME280;11538;48.884;8.696;2023-01-25T13:37:29;99886.97;;;2.47;100.00
22743;BME280;11538;48.884;8.696;2023-01-25T13:40:30;99885.31;;;2.46;100.00
22743;BME280;11538;48.884;8.696;2023-01-25T13:43:16;99880.41;;;2.43;100.00
22743;BME280;11538;48.884;8.696;2023-01-25T13:45:46;99875.22;;;2.48;100.00
22743;BME280;11538;48.884;8.696;2023-01-25T13:48:22;99868.00;;;2.49;100.00
22743;BME280;11538;48.884;8.696;2023-01-25T13:50:56;99868.78;;;2.56;100.00
22743;BME280;11538;48.884;8.696;2023-01-25T13:53:26;99859.84;;;2.62;100.00
22743;BME280;11538;48.884;8.696;2023-01-25T13:56:26;99861.09;;;2.60;100.00
22743;BME280;11538;48.884;8.696;2023-01-25T13:58:54;99863.63;;;2.55;100.00
22743;BME280;11538;48.884;8.696;2023-01-25T14:01:21;99861.97;;;2.54;100.00
22743;BME280;11538;48.884;8.696;2023-01-25T14:03:53;99863.84;;;2.53;100.00
22743;BME280;11538;48.884;8.696;2023-01-25T14:06:26;99860.56;;;2.51;100.00
22743;BME280;11538;48.884;8.696;2023-01-25T14:08:56;99866.72;;;2.52;100.00
22743;BME280;11538;48.884;8.696;2023-01-25T14:11:30;99866.13;;;2.49;100.00
22743;BME280;11538;48.884;8.696;2023-01-25T14:14:18;99865.78;;;2.46;100.00
22743;BME280;11538;48.884;8.696;2023-01-25T14:19:39;99855.78;;;2.34;100.00
22743;BME280;11538;48.884;8.696;2023-01-25T14:22:19;99860.69;;;2.38;100.00
22743;BME280;11538;48.884;8.696;2023-01-25T14:25:09;99866.66;;;2.40;100.00
22743;BME280;11538;48.884;8.696;2023-01-25T14:30:16;99860.53;;;2.32;100.00
22743;BME280;11538;48.884;8.696;2023-01-25T14:32:44;99850.84;;;2.31;100.00
22743;BME280;11538;48.884;8.696;2023-01-25T14:35:35;99851.22;;;2.35;100.00
22743;BME280;11538;48.884;8.696;2023-01-25T14:38:34;99854.50;;;2.37;100.00
22743;BME280;11538;48.884;8.696;2023-01-25T14:41:29;99850.94;;;2.43;100.00
22743;BME280;11538;48.884;8.696;2023-01-25T14:44:01;99837.88;;;2.54;100.00